sensor_id;sensor_type;location;lat;lon;timestamp;pressure;altitude;pressure_sealevel;temperature
71081;BMP180;58740;50.672;18.690;2023-04-25T00:01:09;97970.20;;;13.20
71081;BMP180;58740;50.672;18.690;2023-04-25T00:03:36;97968.00;;;13.20
71081;BMP180;58740;50.672;18.690;2023-04-25T00:06:06;97961.80;;;13.20
71081;BMP180;58740;50.672;18.690;2023-04-25T00:08:35;97971.80;;;13.20
71081;BMP180;58740;50.672;18.690;2023-04-25T00:11:03;97966.60;;;13.20
71081;BMP180;58740;50.672;18.690;2023-04-25T00:13:31;97972.80;;;13.20
71081;BMP180;58740;50.672;18.690;2023-04-25T00:15:59;97969.80;;;13.20
71081;BMP180;58740;50.672;18.690;2023-04-25T00:18:27;97967.60;;;13.20
71081;BMP180;58740;50.672;18.690;2023-04-25T00:20:56;97971.20;;;13.20
71081;BMP180;58740;50.672;18.690;2023-04-25T00:23:24;97971.20;;;13.20
71081;BMP180;58740;50.672;18.690;2023-04-25T00:25:52;97975.00;;;13.10
71081;BMP180;58740;50.672;18.690;2023-04-25T00:28:19;97971.60;;;13.10
71081;BMP180;58740;50.672;18.690;2023-04-25T00:30:47;97971.00;;;13.10
71081;BMP180;58740;50.672;18.690;2023-04-25T00:33:15;97973.80;;;13.00
71081;BMP180;58740;50.672;18.690;2023-04-25T00:35:43;97969.40;;;13.00
71081;BMP180;58740;50.672;18.690;2023-04-25T00:38:10;97966.40;;;12.90
71081;BMP180;58740;50.672;18.690;2023-04-25T00:40:38;97965.40;;;12.90
71081;BMP180;58740;50.672;18.690;2023-04-25T00:43:06;97965.20;;;12.82
71081;BMP180;58740;50.672;18.690;2023-04-25T00:45:38;97973.00;;;12.80
71081;BMP180;58740;50.672;18.690;2023-04-25T00:48:06;97973.60;;;12.80
71081;BMP180;58740;50.672;18.690;2023-04-25T00:50:36;97973.40;;;12.80
71081;BMP180;58740;50.672;18.690;2023-04-25T00:53:04;97972.80;;;12.72
71081;BMP180;58740;50.672;18.690;2023-04-25T00:55:32;97973.40;;;12.70
71081;BMP180;58740;50.672;18.690;2023-04-25T00:58:01;97978.80;;;12.70
71081;BMP180;58740;50.672;18.690;2023-04-25T01:00:30;97973.00;;;12.60
71081;BMP180;58740;50.672;18.690;2023-04-25T01:02:58;97973.60;;;12.60
71081;BMP180;58740;50.672;18.690;2023-04-25T01:05:26;97972.20;;;12.58
71081;BMP180;58740;50.672;18.690;2023-04-25T01:07:54;97972.80;;;12.50
71081;BMP180;58740;50.672;18.690;2023-04-25T01:10:22;97977.40;;;12.50
71081;BMP180;58740;50.672;18.690;2023-04-25T01:12:50;97978.80;;;12.40
71081;BMP180;58740;50.672;18.690;2023-04-25T01:15:18;97981.40;;;12.40
71081;BMP180;58740;50.672;18.690;2023-04-25T01:17:46;97976.80;;;12.40
71081;BMP180;58740;50.672;18.690;2023-04-25T01:20:14;97972.60;;;12.40
71081;BMP180;58740;50.672;18.690;2023-04-25T01:22:43;97978.80;;;12.36
71081;BMP180;58740;50.672;18.690;2023-04-25T01:25:11;97978.80;;;12.30
71081;BMP180;58740;50.672;18.690;2023-04-25T01:27:40;97984.80;;;12.30
71081;BMP180;58740;50.672;18.690;2023-04-25T01:30:09;97978.80;;;12.20
71081;BMP180;58740;50.672;18.690;2023-04-25T01:32:37;97982.00;;;12.20
71081;BMP180;58740;50.672;18.690;2023-04-25T01:35:10;97981.00;;;12.14
71081;BMP180;58740;50.672;18.690;2023-04-25T01:37:42;97982.20;;;12.10
71081;BMP180;58740;50.672;18.690;2023-04-25T01:40:12;97980.40;;;12.10
71081;BMP180;58740;50.672;18.690;2023-04-25T01:42:43;97988.20;;;12.10
71081;BMP180;58740;50.672;18.690;2023-04-25T01:45:12;97985.20;;;12.08
71081;BMP180;58740;50.672;18.690;2023-04-25T01:47:40;97986.40;;;12.00
71081;BMP180;58740;50.672;18.690;2023-04-25T01:50:10;97985.60;;;12.00
71081;BMP180;58740;50.672;18.690;2023-04-25T01:52:38;97988.80;;;12.00
71081;BMP180;58740;50.672;18.690;2023-04-25T01:55:06;97989.60;;;12.00
71081;BMP180;58740;50.672;18.690;2023-04-25T01:57:34;97986.00;;;11.94
71081;BMP180;58740;50.672;18.690;2023-04-25T02:00:06;97994.60;;;11.90
71081;BMP180;58740;50.672;18.690;2023-04-25T02:02:35;97987.20;;;11.90
71081;BMP180;58740;50.672;18.690;2023-04-25T02:05:04;97987.20;;;11.90
71081;BMP180;58740;50.672;18.690;2023-04-25T02:07:32;97989.20;;;11.90
71081;BMP180;58740;50.672;18.690;2023-04-25T02:10:00;97990.60;;;11.90
71081;BMP180;58740;50.672;18.690;2023-04-25T02:12:28;97988.60;;;11.80
71081;BMP180;58740;50.672;18.690;2023-04-25T02:14:56;97988.80;;;11.80
71081;BMP180;58740;50.672;18.690;2023-04-25T02:17:23;97991.60;;;11.80
71081;BMP180;58740;50.672;18.690;2023-04-25T02:19:51;97998.80;;;11.80
71081;BMP180;58740;50.672;18.690;2023-04-25T02:22:19;97991.20;;;11.80
71081;BMP180;58740;50.672;18.690;2023-04-25T02:24:47;97992.20;;;11.80
71081;BMP180;58740;50.672;18.690;2023-04-25T02:27:15;97993.20;;;11.70
71081;BMP180;58740;50.672;18.690;2023-04-25T02:29:42;97999.20;;;11.70
71081;BMP180;58740;50.672;18.690;2023-04-25T02:32:10;97998.60;;;11.70
71081;BMP180;58740;50.672;18.690;2023-04-25T02:34:38;97996.00;;;11.70
71081;BMP180;58740;50.672;18.690;2023-04-25T02:37:05;97991.80;;;11.70
71081;BMP180;58740;50.672;18.690;2023-04-25T02:39:33;97993.60;;;11.70
71081;BMP180;58740;50.672;18.690;2023-04-25T02:42:01;97994.20;;;11.70
71081;BMP180;58740;50.672;18.690;2023-04-25T02:44:28;97993.80;;;11.64
71081;BMP180;58740;50.672;18.690;2023-04-25T02:46:56;97998.00;;;11.66
71081;BMP180;58740;50.672;18.690;2023-04-25T02:49:24;97999.20;;;11.60
71081;BMP180;58740;50.672;18.690;2023-04-25T02:51:52;98000.60;;;11.60
71081;BMP180;58740;50.672;18.690;2023-04-25T02:54:20;98002.00;;;11.60
71081;BMP180;58740;50.672;18.690;2023-04-25T02:56:47;97999.60;;;11.60
71081;BMP180;58740;50.672;18.690;2023-04-25T02:59:15;97999.40;;;11.60
71081;BMP180;58740;50.672;18.690;2023-04-25T03:01:43;97994.80;;;11.60
71081;BMP180;58740;50.672;18.690;2023-04-25T03:04:10;97990.20;;;11.60
71081;BMP180;58740;50.672;18.690;2023-04-25T03:06:39;97992.00;;;11.60
71081;BMP180;58740;50.672;18.690;2023-04-25T03:09:06;97984.40;;;11.60
71081;BMP180;58740;50.672;18.690;2023-04-25T03:11:34;97983.00;;;11.60
71081;BMP180;58740;50.672;18.690;2023-04-25T03:14:02;97988.20;;;11.50
71081;BMP180;58740;50.672;18.690;2023-04-25T03:16:29;97987.60;;;11.50
71081;BMP180;58740;50.672;18.690;2023-04-25T03:18:58;97984.60;;;11.50
71081;BMP180;58740;50.672;18.690;2023-04-25T03:21:26;97984.20;;;11.50
71081;BMP180;58740;50.672;18.690;2023-04-25T03:23:54;97982.00;;;11.50
71081;BMP180;58740;50.672;18.690;2023-04-25T03:26:21;97983.60;;;11.50
71081;BMP180;58740;50.672;18.690;2023-04-25T03:28:49;97989.40;;;11.44
71081;BMP180;58740;50.672;18.690;2023-04-25T03:31:17;97991.80;;;11.40
71081;BMP180;58740;50.672;18.690;2023-04-25T03:33:45;97995.80;;;11.40
71081;BMP180;58740;50.672;18.690;2023-04-25T03:36:12;98004.40;;;11.40
71081;BMP180;58740;50.672;18.690;2023-04-25T03:38:40;98002.20;;;11.40
71081;BMP180;58740;50.672;18.690;2023-04-25T03:41:09;98005.20;;;11.40
71081;BMP180;58740;50.672;18.690;2023-04-25T03:43:37;98009.20;;;11.36
71081;BMP180;58740;50.672;18.690;2023-04-25T03:46:04;98008.60;;;11.30
71081;BMP180;58740;50.672;18.690;2023-04-25T03:48:32;98007.80;;;11.30
71081;BMP180;58740;50.672;18.690;2023-04-25T03:51:00;98004.60;;;11.30
71081;BMP180;58740;50.672;18.690;2023-04-25T03:53:28;98006.40;;;11.28
71081;BMP180;58740;50.672;18.690;2023-04-25T03:55:55;98002.80;;;11.30
71081;BMP180;58740;50.672;18.690;2023-04-25T03:58:23;98006.40;;;11.30
71081;BMP180;58740;50.672;18.690;2023-04-25T04:00:51;98009.20;;;11.30
71081;BMP180;58740;50.672;18.690;2023-04-25T04:03:19;98006.40;;;11.30
71081;BMP180;58740;50.672;18.690;2023-04-25T04:05:48;98006.80;;;11.30
71081;BMP180;58740;50.672;18.690;2023-04-25T04:08:16;98006.20;;;11.30
71081;BMP180;58740;50.672;18.690;2023-04-25T04:10:44;98009.40;;;11.22
71081;BMP180;58740;50.672;18.690;2023-04-25T04:13:11;98010.80;;;11.20
71081;BMP180;58740;50.672;18.690;2023-04-25T04:15:39;98014.40;;;11.20
71081;BMP180;58740;50.672;18.690;2023-04-25T04:18:07;98013.80;;;11.20
71081;BMP180;58740;50.672;18.690;2023-04-25T04:20:34;98023.00;;;11.20
71081;BMP180;58740;50.672;18.690;2023-04-25T04:23:02;98021.20;;;11.20
71081;BMP180;58740;50.672;18.690;2023-04-25T04:25:31;98017.60;;;11.16
71081;BMP180;58740;50.672;18.690;2023-04-25T04:27:58;98022.60;;;11.18
71081;BMP180;58740;50.672;18.690;2023-04-25T04:30:27;98017.20;;;11.20
71081;BMP180;58740;50.672;18.690;2023-04-25T04:32:59;98026.40;;;11.12
71081;BMP180;58740;50.672;18.690;2023-04-25T04:35:28;98025.60;;;11.10
71081;BMP180;58740;50.672;18.690;2023-04-25T04:37:56;98026.80;;;11.10
71081;BMP180;58740;50.672;18.690;2023-04-25T04:40:24;98029.20;;;11.10
71081;BMP180;58740;50.672;18.690;2023-04-25T04:42:53;98030.60;;;11.10
71081;BMP180;58740;50.672;18.690;2023-04-25T04:45:20;98028.40;;;11.20
71081;BMP180;58740;50.672;18.690;2023-04-25T04:47:49;98029.60;;;11.20
71081;BMP180;58740;50.672;18.690;2023-04-25T04:50:17;98036.80;;;11.20
71081;BMP180;58740;50.672;18.690;2023-04-25T04:52:45;98040.00;;;11.20
71081;BMP180;58740;50.672;18.690;2023-04-25T04:55:13;98040.40;;;11.20
71081;BMP180;58740;50.672;18.690;2023-04-25T04:57:41;98041.00;;;11.18
71081;BMP180;58740;50.672;18.690;2023-04-25T05:00:10;98036.20;;;11.12
71081;BMP180;58740;50.672;18.690;2023-04-25T05:02:39;98037.00;;;11.20
71081;BMP180;58740;50.672;18.690;2023-04-25T05:05:07;98035.40;;;11.12
71081;BMP180;58740;50.672;18.690;2023-04-25T05:07:35;98038.80;;;11.12
71081;BMP180;58740;50.672;18.690;2023-04-25T05:10:03;98042.60;;;11.14
71081;BMP180;58740;50.672;18.690;2023-04-25T05:12:31;98042.20;;;11.10
71081;BMP180;58740;50.672;18.690;2023-04-25T05:15:00;98048.40;;;11.10
71081;BMP180;58740;50.672;18.690;2023-04-25T05:17:28;98046.40;;;11.10
71081;BMP180;58740;50.672;18.690;2023-04-25T05:19:56;98047.20;;;11.10
71081;BMP180;58740;50.672;18.690;2023-04-25T05:22:23;98040.80;;;11.10
71081;BMP180;58740;50.672;18.690;2023-04-25T05:24:51;98041.60;;;11.10
71081;BMP180;58740;50.672;18.690;2023-04-25T05:27:24;98042.60;;;11.10
71081;BMP180;58740;50.672;18.690;2023-04-25T05:29:52;98042.60;;;11.10
71081;BMP180;58740;50.672;18.690;2023-04-25T05:32:20;98038.80;;;11.10
71081;BMP180;58740;50.672;18.690;2023-04-25T05:34:48;98044.80;;;11.10
71081;BMP180;58740;50.672;18.690;2023-04-25T05:37:15;98046.80;;;11.10
71081;BMP180;58740;50.672;18.690;2023-04-25T05:39:43;98045.80;;;11.14
71081;BMP180;58740;50.672;18.690;2023-04-25T05:42:11;98049.40;;;11.20
71081;BMP180;58740;50.672;18.690;2023-04-25T05:44:39;98045.40;;;11.20
71081;BMP180;58740;50.672;18.690;2023-04-25T05:47:07;98048.80;;;11.20
71081;BMP180;58740;50.672;18.690;2023-04-25T05:49:35;98046.00;;;11.20
71081;BMP180;58740;50.672;18.690;2023-04-25T05:52:02;98049.60;;;11.20
71081;BMP180;58740;50.672;18.690;2023-04-25T05:54:30;98053.60;;;11.20
71081;BMP180;58740;50.672;18.690;2023-04-25T05:56:58;98054.80;;;11.10
71081;BMP180;58740;50.672;18.690;2023-04-25T05:59:25;98056.60;;;11.10
71081;BMP180;58740;50.672;18.690;2023-04-25T06:01:53;98050.20;;;11.14
71081;BMP180;58740;50.672;18.690;2023-04-25T06:04:21;98047.20;;;11.10
71081;BMP180;58740;50.672;18.690;2023-04-25T06:06:49;98051.20;;;11.10
71081;BMP180;58740;50.672;18.690;2023-04-25T06:09:17;98053.40;;;11.10
71081;BMP180;58740;50.672;18.690;2023-04-25T06:11:45;98053.20;;;11.14
71081;BMP180;58740;50.672;18.690;2023-04-25T06:14:12;98052.00;;;11.20
71081;BMP180;58740;50.672;18.690;2023-04-25T06:16:40;98048.80;;;11.20
71081;BMP180;58740;50.672;18.690;2023-04-25T06:19:08;98053.40;;;11.20
71081;BMP180;58740;50.672;18.690;2023-04-25T06:21:35;98049.40;;;11.20
71081;BMP180;58740;50.672;18.690;2023-04-25T06:24:03;98049.80;;;11.20
71081;BMP180;58740;50.672;18.690;2023-04-25T06:26:31;98048.20;;;11.20
71081;BMP180;58740;50.672;18.690;2023-04-25T06:28:59;98039.20;;;11.20
71081;BMP180;58740;50.672;18.690;2023-04-25T06:31:27;98041.80;;;11.20
71081;BMP180;58740;50.672;18.690;2023-04-25T06:33:56;98047.00;;;11.20
71081;BMP180;58740;50.672;18.690;2023-04-25T06:36:24;98042.60;;;11.20
71081;BMP180;58740;50.672;18.690;2023-04-25T06:38:53;98045.40;;;11.20
71081;BMP180;58740;50.672;18.690;2023-04-25T06:41:22;98042.40;;;11.18
71081;BMP180;58740;50.672;18.690;2023-04-25T06:43:50;98046.20;;;11.16
71081;BMP180;58740;50.672;18.690;2023-04-25T06:46:18;98044.40;;;11.10
71081;BMP180;58740;50.672;18.690;2023-04-25T06:48:46;98047.80;;;11.10
71081;BMP180;58740;50.672;18.690;2023-04-25T06:51:13;98042.80;;;11.18
71081;BMP180;58740;50.672;18.690;2023-04-25T06:53:41;98043.80;;;11.20
71081;BMP180;58740;50.672;18.690;2023-04-25T06:56:09;98046.20;;;11.20
71081;BMP180;58740;50.672;18.690;2023-04-25T06:58:37;98039.60;;;11.20
71081;BMP180;58740;50.672;18.690;2023-04-25T07:01:05;98044.40;;;11.30
71081;BMP180;58740;50.672;18.690;2023-04-25T07:03:33;98037.40;;;11.32
71081;BMP180;58740;50.672;18.690;2023-04-25T07:06:01;98035.20;;;11.40
71081;BMP180;58740;50.672;18.690;2023-04-25T07:08:29;98040.80;;;11.50
71081;BMP180;58740;50.672;18.690;2023-04-25T07:10:57;98036.00;;;11.50
71081;BMP180;58740;50.672;18.690;2023-04-25T07:13:25;98043.00;;;11.60
71081;BMP180;58740;50.672;18.690;2023-04-25T07:15:53;98044.20;;;11.60
71081;BMP180;58740;50.672;18.690;2023-04-25T07:18:23;98041.80;;;11.70
71081;BMP180;58740;50.672;18.690;2023-04-25T07:20:51;98037.00;;;11.70
71081;BMP180;58740;50.672;18.690;2023-04-25T07:23:19;98041.20;;;11.70
71081;BMP180;58740;50.672;18.690;2023-04-25T07:25:47;98041.80;;;11.72
71081;BMP180;58740;50.672;18.690;2023-04-25T07:28:15;98038.80;;;11.80
71081;BMP180;58740;50.672;18.690;2023-04-25T07:30:46;98043.20;;;11.80
71081;BMP180;58740;50.672;18.690;2023-04-25T07:33:13;98050.00;;;11.80
71081;BMP180;58740;50.672;18.690;2023-04-25T07:35:41;98045.60;;;11.84
71081;BMP180;58740;50.672;18.690;2023-04-25T07:38:09;98042.20;;;11.88
71081;BMP180;58740;50.672;18.690;2023-04-25T07:40:37;98043.80;;;11.86
71081;BMP180;58740;50.672;18.690;2023-04-25T07:43:05;98045.20;;;11.82
71081;BMP180;58740;50.672;18.690;2023-04-25T07:45:33;98041.00;;;11.82
71081;BMP180;58740;50.672;18.690;2023-04-25T07:48:01;98043.40;;;11.88
71081;BMP180;58740;50.672;18.690;2023-04-25T07:50:28;98039.20;;;11.88
71081;BMP180;58740;50.672;18.690;2023-04-25T07:52:56;98041.60;;;11.84
71081;BMP180;58740;50.672;18.690;2023-04-25T07:55:24;98042.40;;;11.84
71081;BMP180;58740;50.672;18.690;2023-04-25T07:57:52;98041.40;;;11.82
71081;BMP180;58740;50.672;18.690;2023-04-25T08:00:20;98038.80;;;11.90
71081;BMP180;58740;50.672;18.690;2023-04-25T08:02:47;98037.00;;;11.90
71081;BMP180;58740;50.672;18.690;2023-04-25T08:05:15;98033.60;;;11.98
71081;BMP180;58740;50.672;18.690;2023-04-25T08:07:47;98035.80;;;12.00
71081;BMP180;58740;50.672;18.690;2023-04-25T08:10:15;98038.60;;;12.00
71081;BMP180;58740;50.672;18.690;2023-04-25T08:12:43;98035.20;;;12.04
71081;BMP180;58740;50.672;18.690;2023-04-25T08:15:11;98041.00;;;12.10
71081;BMP180;58740;50.672;18.690;2023-04-25T08:17:41;98040.40;;;12.20
71081;BMP180;58740;50.672;18.690;2023-04-25T08:20:09;98036.40;;;12.20
71081;BMP180;58740;50.672;18.690;2023-04-25T08:22:38;98042.00;;;12.30
71081;BMP180;58740;50.672;18.690;2023-04-25T08:25:06;98039.60;;;12.30
71081;BMP180;58740;50.672;18.690;2023-04-25T08:27:33;98031.80;;;12.30
71081;BMP180;58740;50.672;18.690;2023-04-25T08:30:03;98027.60;;;12.32
71081;BMP180;58740;50.672;18.690;2023-04-25T08:32:31;98032.60;;;12.30
71081;BMP180;58740;50.672;18.690;2023-04-25T08:34:58;98036.60;;;12.36
71081;BMP180;58740;50.672;18.690;2023-04-25T08:37:26;98038.80;;;12.32
71081;BMP180;58740;50.672;18.690;2023-04-25T08:39:54;98040.20;;;12.40
71081;BMP180;58740;50.672;18.690;2023-04-25T08:42:26;98040.80;;;12.40
71081;BMP180;58740;50.672;18.690;2023-04-25T08:44:55;98041.40;;;12.50
71081;BMP180;58740;50.672;18.690;2023-04-25T08:47:23;98036.00;;;12.50
71081;BMP180;58740;50.672;18.690;2023-04-25T08:49:54;98044.40;;;12.50
71081;BMP180;58740;50.672;18.690;2023-04-25T08:52:23;98037.20;;;12.52
71081;BMP180;58740;50.672;18.690;2023-04-25T08:54:54;98045.40;;;12.60
71081;BMP180;58740;50.672;18.690;2023-04-25T08:57:23;98040.80;;;12.60
71081;BMP180;58740;50.672;18.690;2023-04-25T08:59:53;98039.00;;;12.62
71081;BMP180;58740;50.672;18.690;2023-04-25T09:02:22;98044.00;;;12.70
71081;BMP180;58740;50.672;18.690;2023-04-25T09:04:53;98047.00;;;12.80
71081;BMP180;58740;50.672;18.690;2023-04-25T09:07:22;98049.20;;;12.80
71081;BMP180;58740;50.672;18.690;2023-04-25T09:09:50;98047.00;;;12.90
71081;BMP180;58740;50.672;18.690;2023-04-25T09:12:19;98053.60;;;12.90
71081;BMP180;58740;50.672;18.690;2023-04-25T09:15:09;98048.00;;;13.00
71081;BMP180;58740;50.672;18.690;2023-04-25T09:17:41;98046.80;;;13.00
71081;BMP180;58740;50.672;18.690;2023-04-25T09:20:13;98047.40;;;13.00
71081;BMP180;58740;50.672;18.690;2023-04-25T09:22:41;98050.20;;;13.00
71081;BMP180;58740;50.672;18.690;2023-04-25T09:25:11;98046.00;;;12.90
71081;BMP180;58740;50.672;18.690;2023-04-25T09:27:54;98041.00;;;12.90
71081;BMP180;58740;50.672;18.690;2023-04-25T09:30:30;98043.60;;;12.80
71081;BMP180;58740;50.672;18.690;2023-04-25T09:33:05;98040.00;;;12.80
71081;BMP180;58740;50.672;18.690;2023-04-25T09:35:42;98046.00;;;12.80
71081;BMP180;58740;50.672;18.690;2023-04-25T09:38:13;98043.00;;;12.80
71081;BMP180;58740;50.672;18.690;2023-04-25T09:40:46;98044.80;;;12.72
71081;BMP180;58740;50.672;18.690;2023-04-25T09:43:23;98047.20;;;12.76
71081;BMP180;58740;50.672;18.690;2023-04-25T09:45:54;98046.00;;;12.74
71081;BMP180;58740;50.672;18.690;2023-04-25T09:48:28;98039.40;;;12.74
71081;BMP180;58740;50.672;18.690;2023-04-25T09:51:13;98039.60;;;12.80
71081;BMP180;58740;50.672;18.690;2023-04-25T09:53:46;98041.80;;;12.82
71081;BMP180;58740;50.672;18.690;2023-04-25T09:56:19;98048.80;;;12.90
71081;BMP180;58740;50.672;18.690;2023-04-25T09:58:51;98051.80;;;13.00
71081;BMP180;58740;50.672;18.690;2023-04-25T10:01:22;98047.40;;;12.96
71081;BMP180;58740;50.672;18.690;2023-04-25T10:03:52;98045.60;;;12.90
71081;BMP180;58740;50.672;18.690;2023-04-25T10:06:26;98044.60;;;12.98
71081;BMP180;58740;50.672;18.690;2023-04-25T10:08:55;98050.80;;;12.90
71081;BMP180;58740;50.672;18.690;2023-04-25T10:11:26;98048.00;;;12.92
71081;BMP180;58740;50.672;18.690;2023-04-25T10:13:56;98046.80;;;12.98
71081;BMP180;58740;50.672;18.690;2023-04-25T10:16:24;98052.40;;;12.90
71081;BMP180;58740;50.672;18.690;2023-04-25T10:18:52;98050.60;;;12.90
71081;BMP180;58740;50.672;18.690;2023-04-25T10:21:21;98043.40;;;12.90
71081;BMP180;58740;50.672;18.690;2023-04-25T10:23:49;98051.80;;;12.90
71081;BMP180;58740;50.672;18.690;2023-04-25T10:26:18;98049.60;;;12.90
71081;BMP180;58740;50.672;18.690;2023-04-25T10:29:03;98053.60;;;13.00
71081;BMP180;58740;50.672;18.690;2023-04-25T10:31:32;98051.40;;;13.00
71081;BMP180;58740;50.672;18.690;2023-04-25T10:34:00;98047.80;;;13.10
71081;BMP180;58740;50.672;18.690;2023-04-25T10:36:31;98048.00;;;13.10
71081;BMP180;58740;50.672;18.690;2023-04-25T10:39:05;98045.20;;;13.10
71081;BMP180;58740;50.672;18.690;2023-04-25T10:41:58;98034.80;;;13.10
71081;BMP180;58740;50.672;18.690;2023-04-25T10:44:30;98035.60;;;13.18
71081;BMP180;58740;50.672;18.690;2023-04-25T10:47:00;98037.40;;;13.10
71081;BMP180;58740;50.672;18.690;2023-04-25T10:49:41;98040.80;;;13.10
71081;BMP180;58740;50.672;18.690;2023-04-25T10:52:27;98039.00;;;13.14
71081;BMP180;58740;50.672;18.690;2023-04-25T10:54:57;98035.00;;;13.16
71081;BMP180;58740;50.672;18.690;2023-04-25T10:57:42;98037.00;;;13.14
71081;BMP180;58740;50.672;18.690;2023-04-25T11:00:16;98033.20;;;13.16
71081;BMP180;58740;50.672;18.690;2023-04-25T11:02:52;98038.20;;;13.04
71081;BMP180;58740;50.672;18.690;2023-04-25T11:05:33;98035.40;;;13.00
71081;BMP180;58740;50.672;18.690;2023-04-25T11:08:25;98033.40;;;12.88
71081;BMP180;58740;50.672;18.690;2023-04-25T11:11:01;98039.80;;;12.80
71081;BMP180;58740;50.672;18.690;2023-04-25T11:13:29;98040.20;;;12.76
71081;BMP180;58740;50.672;18.690;2023-04-25T11:15:58;98034.20;;;12.78
71081;BMP180;58740;50.672;18.690;2023-04-25T11:18:44;98039.80;;;12.70
71081;BMP180;58740;50.672;18.690;2023-04-25T11:21:13;98039.80;;;12.70
71081;BMP180;58740;50.672;18.690;2023-04-25T11:23:45;98045.40;;;12.70
71081;BMP180;58740;50.672;18.690;2023-04-25T11:26:13;98039.60;;;12.70
71081;BMP180;58740;50.672;18.690;2023-04-25T11:28:45;98039.80;;;12.70
71081;BMP180;58740;50.672;18.690;2023-04-25T11:31:13;98036.20;;;12.70
71081;BMP180;58740;50.672;18.690;2023-04-25T11:33:41;98038.00;;;12.70
71081;BMP180;58740;50.672;18.690;2023-04-25T11:36:10;98040.20;;;12.76
71081;BMP180;58740;50.672;18.690;2023-04-25T11:38:38;98042.60;;;12.80
71081;BMP180;58740;50.672;18.690;2023-04-25T11:41:06;98046.80;;;12.82
71081;BMP180;58740;50.672;18.690;2023-04-25T11:43:33;98042.80;;;12.90
71081;BMP180;58740;50.672;18.690;2023-04-25T11:46:07;98041.80;;;12.84
71081;BMP180;58740;50.672;18.690;2023-04-25T11:48:40;98038.80;;;12.80
71081;BMP180;58740;50.672;18.690;2023-04-25T11:51:08;98036.00;;;12.80
71081;BMP180;58740;50.672;18.690;2023-04-25T11:53:41;98032.20;;;12.80
71081;BMP180;58740;50.672;18.690;2023-04-25T11:56:11;98042.00;;;12.80
71081;BMP180;58740;50.672;18.690;2023-04-25T12:01:35;98042.00;;;12.72
71081;BMP180;58740;50.672;18.690;2023-04-25T12:06:48;98039.60;;;12.70
71081;BMP180;58740;50.672;18.690;2023-04-25T12:09:20;98039.20;;;12.70
71081;BMP180;58740;50.672;18.690;2023-04-25T12:11:56;98040.40;;;12.70
71081;BMP180;58740;50.672;18.690;2023-04-25T12:14:33;98032.80;;;12.70
71081;BMP180;58740;50.672;18.690;2023-04-25T12:17:03;98036.20;;;12.70
71081;BMP180;58740;50.672;18.690;2023-04-25T12:19:37;98041.20;;;12.80
71081;BMP180;58740;50.672;18.690;2023-04-25T12:22:29;98041.00;;;12.80
71081;BMP180;58740;50.672;18.690;2023-04-25T12:24:59;98038.00;;;12.80
71081;BMP180;58740;50.672;18.690;2023-04-25T12:27:27;98043.00;;;12.80
71081;BMP180;58740;50.672;18.690;2023-04-25T12:29:56;98045.00;;;12.80
71081;BMP180;58740;50.672;18.690;2023-04-25T12:32:25;98050.20;;;12.78
71081;BMP180;58740;50.672;18.690;2023-04-25T12:34:54;98038.80;;;12.70
71081;BMP180;58740;50.672;18.690;2023-04-25T12:37:23;98044.80;;;12.70
71081;BMP180;58740;50.672;18.690;2023-04-25T12:39:51;98042.60;;;12.70
71081;BMP180;58740;50.672;18.690;2023-04-25T12:42:19;98043.40;;;12.70
71081;BMP180;58740;50.672;18.690;2023-04-25T12:44:47;98047.00;;;12.70
71081;BMP180;58740;50.672;18.690;2023-04-25T12:47:15;98047.00;;;12.70
71081;BMP180;58740;50.672;18.690;2023-04-25T12:49:43;98056.80;;;12.70
71081;BMP180;58740;50.672;18.690;2023-04-25T12:52:11;98050.20;;;12.70
71081;BMP180;58740;50.672;18.690;2023-04-25T12:54:42;98046.20;;;12.70
71081;BMP180;58740;50.672;18.690;2023-04-25T12:57:10;98042.20;;;12.68
71081;BMP180;58740;50.672;18.690;2023-04-25T12:59:39;98042.20;;;12.68
71081;BMP180;58740;50.672;18.690;2023-04-25T13:02:07;98043.00;;;12.70
71081;BMP180;58740;50.672;18.690;2023-04-25T13:04:36;98040.80;;;12.70
71081;BMP180;58740;50.672;18.690;2023-04-25T13:07:04;98040.00;;;12.70
71081;BMP180;58740;50.672;18.690;2023-04-25T13:09:33;98043.60;;;12.70
71081;BMP180;58740;50.672;18.690;2023-04-25T13:12:01;98033.60;;;12.70
71081;BMP180;58740;50.672;18.690;2023-04-25T13:14:29;98037.80;;;12.70
71081;BMP180;58740;50.672;18.690;2023-04-25T13:16:58;98039.20;;;12.70
71081;BMP180;58740;50.672;18.690;2023-04-25T13:19:27;98046.20;;;12.70
71081;BMP180;58740;50.672;18.690;2023-04-25T13:21:55;98046.40;;;12.70
71081;BMP180;58740;50.672;18.690;2023-04-25T13:24:23;98042.80;;;12.68
71081;BMP180;58740;50.672;18.690;2023-04-25T13:26:50;98045.20;;;12.60
71081;BMP180;58740;50.672;18.690;2023-04-25T13:29:18;98047.40;;;12.60
71081;BMP180;58740;50.672;18.690;2023-04-25T13:31:46;98050.20;;;12.56
71081;BMP180;58740;50.672;18.690;2023-04-25T13:34:14;98050.00;;;12.50
71081;BMP180;58740;50.672;18.690;2023-04-25T13:36:42;98055.20;;;12.50
71081;BMP180;58740;50.672;18.690;2023-04-25T13:39:10;98053.20;;;12.40
71081;BMP180;58740;50.672;18.690;2023-04-25T13:41:38;98046.40;;;12.40
71081;BMP180;58740;50.672;18.690;2023-04-25T13:44:06;98041.00;;;12.40
71081;BMP180;58740;50.672;18.690;2023-04-25T13:46:34;98038.20;;;12.40
71081;BMP180;58740;50.672;18.690;2023-04-25T13:49:13;98037.20;;;12.40
71081;BMP180;58740;50.672;18.690;2023-04-25T13:51:41;98039.80;;;12.50
71081;BMP180;58740;50.672;18.690;2023-04-25T13:54:10;98037.40;;;12.50
71081;BMP180;58740;50.672;18.690;2023-04-25T13:56:38;98036.20;;;12.60
71081;BMP180;58740;50.672;18.690;2023-04-25T13:59:06;98039.60;;;12.70
71081;BMP180;58740;50.672;18.690;2023-04-25T14:01:34;98033.40;;;12.72
71081;BMP180;58740;50.672;18.690;2023-04-25T14:04:03;98037.20;;;12.80
71081;BMP180;58740;50.672;18.690;2023-04-25T14:06:32;98040.40;;;12.90
71081;BMP180;58740;50.672;18.690;2023-04-25T14:09:00;98035.00;;;13.00
71081;BMP180;58740;50.672;18.690;2023-04-25T14:11:28;98037.00;;;13.00
71081;BMP180;58740;50.672;18.690;2023-04-25T14:13:56;98033.80;;;13.04